KATY/ATY METAR and TAF weather

Enter ICAO airport designator
Station Type Date Time Source
KATY METAR 2021/03/05 05:53 UTC NOAA

KATY 050553Z AUTO 16009KT 7SM CLR 01/01 A3022 RMK AO2 SLP247 T00110006 10094 20011 401281017 51006


Station Type Date Time Source
KATY Decoded METAR 2021/03/05 05:53 UTC NOAA

WATERTOWN MUNICIPAL AIRPORT, SD, United States (KATY) 44-54N 097-09W 532M
Mar 05, 2021 - 12:53 AM EST / 2021.03.05 0553 UTC
Wind: from the SSE (160 degrees) at 10 MPH (9 KT):0
Visibility: 7 mile(s):0
Sky conditions: clear
Temperature: 34.0 F (1.1 C)
Windchill: 26 F (-3 C):1
Dew Point: 33.1 F (0.6 C)
Relative Humidity: 96%
Pressure (altimeter): 30.22 in. Hg (1023 hPa)
Pressure tendency: 0.02 inches (0.6 hPa) higher than three hours ago
ob: KATY 050553Z AUTO 16009KT 7SM CLR 01/01 A3022 RMK AO2 SLP247 T00110006 10094 20011 401281017 51006
cycle: 6

Station Type Date Time Source
KATY TAF 2021/03/05 06:42 UTC NOAA

TAF KATY 050539Z 0506/0606 16009KT P6SM SCT250
FM050900 15007KT 5SM BR SCT015
FM051200 VRB03KT 5SM BR SCT005
FM051500 VRB04KT 6SM BR BKN012
FM051700 08005KT P6SM SCT150
FM060300 11005KT P6SM SCT150

Example: see airport list